Time;durP1;ratioP1;P1;durP2;ratioP2;P2;SDS_P1;SDS_P2;PMS_P1;PMS_P2;Temp;Humidity;BMP_temperature;BMP_pressure;BME280_temperature;BME280_humidity;BME280_pressure;Samples;Min_cycle;Max_cycle;Signal;HPM_P1;HPM_P2
2024/03/05 00:02:09;;;;;;;1.25;0.82;;;5.40;88.50;;;;;;5114971;28;20416;-73
2024/03/05 00:04:35;;;;;;;1.42;0.82;;;5.40;88.60;;;;;;5115182;28;20123;-73
2024/03/05 00:07:00;;;;;;;1.15;0.73;;;5.40;88.70;;;;;;5096625;28;20067;-73
2024/03/05 00:09:26;;;;;;;1.50;0.93;;;5.40;88.70;;;;;;5096425;28;20047;-73
2024/03/05 00:11:52;;;;;;;1.02;0.70;;;5.30;88.60;;;;;;5096801;28;20044;-73
2024/03/05 00:14:18;;;;;;;1.45;0.80;;;5.30;88.70;;;;;;5115225;28;20483;-74
2024/03/05 00:16:44;;;;;;;0.82;0.63;;;5.20;88.60;;;;;;5096987;28;20039;-73
2024/03/05 00:19:11;;;;;;;0.52;0.50;;;5.20;88.70;;;;;;5115325;28;20043;-73
2024/03/05 00:21:37;;;;;;;1.25;0.73;;;5.20;88.80;;;;;;5096635;28;20047;-73
2024/03/05 00:24:03;;;;;;;1.00;0.70;;;5.30;88.90;;;;;;5114439;28;20165;-73
2024/03/05 00:26:29;;;;;;;0.85;0.70;;;5.20;88.70;;;;;;5114344;28;20105;-73
2024/03/05 00:28:56;;;;;;;1.75;1.10;;;5.30;88.80;;;;;;5114597;28;20039;-73
2024/03/05 00:31:22;;;;;;;1.25;0.77;;;5.30;88.70;;;;;;5114353;28;20084;-73
2024/03/05 00:33:48;;;;;;;0.95;0.70;;;5.40;88.70;;;;;;5114541;28;20043;-73
2024/03/05 00:36:14;;;;;;;1.65;1.00;;;5.40;88.60;;;;;;5113595;28;20035;-73
2024/03/05 00:38:40;;;;;;;1.10;0.60;;;5.40;88.50;;;;;;5079501;28;20055;-73
2024/03/05 00:41:06;;;;;;;1.38;0.88;;;5.50;88.40;;;;;;5114127;28;20453;-73
2024/03/05 00:43:32;;;;;;;1.17;0.75;;;5.50;88.40;;;;;;5114164;28;20071;-73
2024/03/05 00:45:58;;;;;;;1.20;0.80;;;5.50;88.20;;;;;;5114314;28;20036;-73
2024/03/05 00:48:24;;;;;;;1.45;0.93;;;5.60;88.20;;;;;;5114104;28;20043;-74
2024/03/05 00:50:50;;;;;;;0.90;0.70;;;5.60;88.10;;;;;;5114715;28;20043;-73
2024/03/05 00:53:17;;;;;;;1.05;0.70;;;5.70;88.10;;;;;;5114013;28;20387;-73
2024/03/05 00:55:44;;;;;;;1.23;0.90;;;5.70;88.10;;;;;;5114694;28;20611;-73
2024/03/05 00:58:10;;;;;;;1.02;0.70;;;5.70;88.00;;;;;;5113999;28;20035;-73
2024/03/05 01:00:35;;;;;;;0.75;0.60;;;5.70;88.00;;;;;;5113869;28;20122;-73
2024/03/05 01:03:01;;;;;;;1.30;0.80;;;5.70;87.90;;;;;;5113746;28;20181;-73
2024/03/05 01:05:27;;;;;;;1.52;0.80;;;5.80;87.90;;;;;;5095541;28;20043;-73
2024/03/05 01:07:52;;;;;;;1.83;1.10;;;5.80;87.90;;;;;;5113569;28;20048;-74
2024/03/05 01:10:18;;;;;;;0.93;0.73;;;5.80;87.90;;;;;;5113832;28;20089;-74
2024/03/05 01:12:44;;;;;;;2.35;1.15;;;5.80;87.90;;;;;;5113501;28;20119;-73
2024/03/05 01:15:10;;;;;;;1.20;0.90;;;5.90;88.00;;;;;;5095532;28;20118;-73
2024/03/05 01:17:35;;;;;;;1.55;1.00;;;5.90;88.00;;;;;;5113655;28;20410;-73
2024/03/05 01:20:02;;;;;;;1.20;0.82;;;5.90;88.00;;;;;;5113416;28;20036;-73
2024/03/05 01:22:28;;;;;;;0.85;0.63;;;5.80;87.90;;;;;;5113310;28;20067;-73
2024/03/05 01:24:53;;;;;;;1.08;0.70;;;5.90;88.10;;;;;;5095068;28;20082;-73
2024/03/05 01:27:20;;;;;;;1.88;1.00;;;5.80;88.00;;;;;;5113742;28;20047;-73
2024/03/05 01:29:47;;;;;;;2.15;0.82;;;5.80;88.10;;;;;;5113551;28;20031;-73
2024/03/05 01:32:13;;;;;;;0.90;0.65;;;5.90;88.30;;;;;;5095222;28;20093;-74
2024/03/05 01:34:43;;;;;;;1.48;0.80;;;5.80;88.20;;;;;;5078252;28;20520;-73
2024/03/05 01:37:10;;;;;;;1.17;0.90;;;5.90;88.30;;;;;;5113542;28;20036;-73
2024/03/05 01:39:36;;;;;;;1.65;0.98;;;5.80;88.30;;;;;;5094783;28;20092;-73
2024/03/05 01:42:02;;;;;;;1.05;0.80;;;5.90;88.40;;;;;;5113346;28;20138;-73
2024/03/05 01:44:28;;;;;;;1.20;0.80;;;5.90;88.40;;;;;;5113443;28;20181;-73
2024/03/05 01:46:57;;;;;;;1.02;0.90;;;6.00;88.50;;;;;;5112435;28;20127;-73
2024/03/05 01:49:23;;;;;;;3.00;1.10;;;5.90;88.50;;;;;;5094585;28;20070;-73
2024/03/05 01:51:50;;;;;;;1.67;1.10;;;5.90;88.40;;;;;;5113340;28;20047;-73
2024/03/05 01:54:17;;;;;;;1.65;1.05;;;5.90;88.40;;;;;;5112776;28;20055;-73
2024/03/05 01:56:47;;;;;;;1.60;0.90;;;6.00;88.50;;;;;;5094315;28;20078;-73
2024/03/05 01:59:14;;;;;;;2.13;1.15;;;6.00;88.50;;;;;;5112988;28;20047;-73
2024/03/05 02:01:43;;;;;;;2.53;1.20;;;6.10;88.50;;;;;;5112656;28;20046;-74
2024/03/05 02:04:10;;;;;;;1.75;1.00;;;6.00;88.40;;;;;;5112683;28;20424;-73
2024/03/05 02:06:41;;;;;;;2.10;1.20;;;6.10;88.40;;;;;;5113138;28;20180;-73
2024/03/05 02:09:11;;;;;;;2.25;1.10;;;6.20;88.40;;;;;;5111248;28;20101;-73
2024/03/05 02:11:39;;;;;;;1.40;0.93;;;6.20;88.30;;;;;;5113298;28;20096;-73
2024/03/05 02:14:05;;;;;;;2.38;1.15;;;6.20;88.30;;;;;;5112794;28;20039;-73
2024/03/05 02:16:31;;;;;;;1.98;1.08;;;6.30;88.30;;;;;;5112934;28;20028;-73
2024/03/05 02:18:56;;;;;;;2.42;1.30;;;6.30;88.30;;;;;;5112535;28;20039;-73
2024/03/05 02:21:22;;;;;;;1.55;0.93;;;6.30;88.30;;;;;;5112324;28;20482;-73
2024/03/05 02:23:48;;;;;;;2.20;1.00;;;6.30;88.20;;;;;;5112932;28;20069;-73
2024/03/05 02:26:17;;;;;;;2.50;1.20;;;6.40;88.30;;;;;;5112539;28;20043;-73
2024/03/05 02:28:46;;;;;;;1.83;1.10;;;6.40;88.30;;;;;;5112453;28;20027;-73
2024/03/05 02:31:13;;;;;;;1.65;1.02;;;6.40;88.30;;;;;;5112680;28;20040;-73
2024/03/05 02:33:42;;;;;;;2.78;1.30;;;6.50;88.40;;;;;;5094110;28;20077;-74
2024/03/05 02:36:08;;;;;;;2.17;0.95;;;6.50;88.40;;;;;;5112462;28;20438;-73
2024/03/05 02:38:34;;;;;;;2.15;1.15;;;6.60;88.40;;;;;;5093927;28;20447;-73
2024/03/05 02:41:00;;;;;;;2.17;1.10;;;6.50;88.40;;;;;;5112228;28;20043;-73
2024/03/05 02:43:25;;;;;;;1.00;0.90;;;6.50;88.40;;;;;;5093778;28;20555;-73
2024/03/05 02:45:51;;;;;;;2.33;1.20;;;6.60;88.50;;;;;;5112150;28;20101;-73
2024/03/05 02:48:17;;;;;;;2.40;1.23;;;6.60;88.60;;;;;;5112517;28;20410;-73
2024/03/05 02:50:43;;;;;;;2.60;1.30;;;6.60;88.60;;;;;;5093841;28;20046;-73
2024/03/05 02:53:09;;;;;;;2.63;1.40;;;6.60;88.60;;;;;;5094614;28;20104;-73
2024/03/05 02:55:38;;;;;;;1.85;1.10;;;6.60;88.60;;;;;;5111863;28;20096;-73
2024/03/05 02:58:06;;;;;;;1.65;0.93;;;6.70;88.70;;;;;;5112826;28;20040;-73
2024/03/05 03:00:33;;;;;;;2.78;1.20;;;6.70;88.70;;;;;;5097710;28;20486;-73
2024/03/05 03:02:59;;;;;;;1.60;1.20;;;6.70;88.80;;;;;;5115502;28;20043;-73
2024/03/05 03:05:25;;;;;;;2.65;1.40;;;6.70;88.80;;;;;;5097369;28;20118;-73
2024/03/05 03:07:51;;;;;;;2.58;1.52;;;6.70;88.80;;;;;;5116100;28;20059;-73
2024/03/05 03:10:18;;;;;;;2.20;1.00;;;6.70;88.90;;;;;;5097704;28;20078;-74
2024/03/05 03:12:47;;;;;;;2.95;1.20;;;6.70;88.90;;;;;;5115376;28;20051;-73
2024/03/05 03:15:13;;;;;;;1.33;0.98;;;6.70;88.90;;;;;;5078706;28;20131;-73
2024/03/05 03:17:41;;;;;;;2.80;1.20;;;6.70;89.00;;;;;;5115422;28;20116;-73
2024/03/05 03:20:09;;;;;;;1.77;1.27;;;6.70;89.10;;;;;;5115333;28;20040;-73
2024/03/05 03:22:36;;;;;;;2.40;1.20;;;6.80;89.20;;;;;;5097774;28;20044;-73
2024/03/05 03:25:02;;;;;;;4.15;1.50;;;6.80;89.20;;;;;;5096925;28;20390;-74
2024/03/05 03:27:29;;;;;;;2.85;1.40;;;6.80;89.20;;;;;;5096830;28;20040;-74
2024/03/05 03:29:54;;;;;;;2.85;1.30;;;6.80;89.20;;;;;;5115650;28;20053;-74
2024/03/05 03:32:20;;;;;;;2.88;1.35;;;6.80;89.20;;;;;;5096748;28;20483;-73
2024/03/05 03:34:46;;;;;;;2.40;1.25;;;6.80;89.20;;;;;;5115078;28;20097;-73
2024/03/05 03:37:13;;;;;;;1.95;1.17;;;6.80;89.30;;;;;;5115246;28;20040;-73
2024/03/05 03:39:47;;;;;;;2.10;1.20;;;6.80;89.20;;;;;;5097218;28;20479;-73
2024/03/05 03:42:13;;;;;;;2.33;1.20;;;6.80;89.40;;;;;;5096571;28;20063;-74
2024/03/05 03:44:39;;;;;;;1.23;0.93;;;6.70;89.30;;;;;;5115080;28;20130;-74
2024/03/05 03:47:06;;;;;;;2.25;1.30;;;6.80;89.40;;;;;;5096868;28;20380;-73
2024/03/05 03:49:32;;;;;;;1.30;0.90;;;6.80;89.40;;;;;;5115629;28;20071;-73
2024/03/05 03:51:58;;;;;;;1.67;1.20;;;6.80;89.40;;;;;;5096288;28;20133;-73
2024/03/05 03:54:24;;;;;;;2.20;1.20;;;6.80;89.40;;;;;;5114875;28;20082;-73
2024/03/05 03:56:51;;;;;;;1.48;0.90;;;6.80;89.50;;;;;;5115180;28;20036;-73
2024/03/05 03:59:17;;;;;;;1.55;1.00;;;6.90;89.60;;;;;;5115040;28;20092;-73
2024/03/05 04:01:47;;;;;;;1.52;0.90;;;6.80;89.50;;;;;;5114628;28;20126;-73
2024/03/05 04:04:13;;;;;;;1.35;1.08;;;6.80;89.60;;;;;;5115087;28;20337;-74
2024/03/05 04:06:39;;;;;;;2.35;1.23;;;6.90;89.70;;;;;;5114577;28;20046;-73
2024/03/05 04:09:08;;;;;;;2.67;1.30;;;6.90;89.70;;;;;;5114221;28;20039;-73
2024/03/05 04:11:37;;;;;;;3.60;1.38;;;6.90;89.70;;;;;;5115191;28;20437;-73
2024/03/05 04:14:03;;;;;;;2.35;1.40;;;6.90;89.60;;;;;;5079396;28;20040;-73
2024/03/05 04:16:29;;;;;;;2.00;1.15;;;6.90;89.60;;;;;;5114918;28;20059;-74
2024/03/05 04:18:57;;;;;;;3.10;1.42;;;7.00;89.70;;;;;;5114258;28;20114;-74
2024/03/05 04:21:23;;;;;;;2.33;1.15;;;7.00;89.70;;;;;;5114511;28;20048;-73
2024/03/05 04:23:50;;;;;;;2.20;1.17;;;7.00;89.70;;;;;;5096075;28;20039;-73
2024/03/05 04:26:23;;;;;;;2.25;1.40;;;6.90;89.60;;;;;;5114219;28;20101;-73
2024/03/05 04:28:52;;;;;;;2.90;1.50;;;7.00;89.70;;;;;;5114224;28;20067;-73
2024/03/05 04:31:20;;;;;;;2.67;1.38;;;7.00;89.70;;;;;;5096165;28;20039;-73
2024/03/05 04:33:48;;;;;;;3.55;1.45;;;7.00;89.70;;;;;;5114732;28;20047;-73
2024/03/05 04:36:16;;;;;;;1.80;1.33;;;7.00;89.70;;;;;;5114549;28;20092;-73
2024/03/05 04:38:43;;;;;;;3.88;1.60;;;7.00;89.70;;;;;;5114241;28;20040;-73
2024/03/05 04:41:10;;;;;;;3.03;1.45;;;7.10;89.80;;;;;;5114098;28;20047;-73
2024/03/05 04:43:38;;;;;;;2.53;1.30;;;7.10;89.80;;;;;;5114616;28;20047;-73
2024/03/05 04:46:04;;;;;;;2.28;1.35;;;7.10;89.80;;;;;;5095780;28;20173;-73
2024/03/05 04:48:30;;;;;;;3.58;1.60;;;7.10;89.80;;;;;;5095888;28;20085;-73
2024/03/05 04:50:56;;;;;;;3.22;1.42;;;7.10;89.80;;;;;;5095800;28;20037;-74
2024/03/05 04:53:22;;;;;;;3.55;1.60;;;7.10;89.80;;;;;;5113677;28;20043;-74
2024/03/05 04:55:47;;;;;;;2.08;1.30;;;7.10;89.90;;;;;;5095439;28;20131;-73
2024/03/05 04:58:14;;;;;;;2.38;1.42;;;7.10;89.90;;;;;;5113834;28;20482;-73
2024/03/05 05:00:40;;;;;;;2.88;1.60;;;7.10;89.90;;;;;;5113891;28;20101;-73
2024/03/05 05:03:06;;;;;;;3.17;1.65;;;7.10;89.90;;;;;;5062218;28;20040;-73
2024/03/05 05:05:32;;;;;;;2.75;1.60;;;7.20;90.00;;;;;;5078985;28;20046;-73
2024/03/05 05:08:00;;;;;;;4.20;2.00;;;7.20;90.00;;;;;;5113783;28;20046;-74
2024/03/05 05:10:26;;;;;;;2.60;1.50;;;7.30;90.00;;;;;;5114099;28;20046;-73
2024/03/05 05:12:52;;;;;;;2.80;1.58;;;7.20;90.00;;;;;;5113583;28;20050;-73
2024/03/05 05:15:18;;;;;;;3.00;1.60;;;7.20;90.00;;;;;;5114007;28;20055;-73
2024/03/05 05:17:45;;;;;;;2.47;1.23;;;7.20;90.00;;;;;;5113942;28;20486;-73
2024/03/05 05:20:15;;;;;;;3.35;1.70;;;7.20;90.00;;;;;;5113611;28;20090;-73
2024/03/05 05:22:42;;;;;;;3.35;1.40;;;7.20;90.00;;;;;;5113853;28;20044;-73
2024/03/05 05:25:08;;;;;;;2.90;1.50;;;7.20;90.00;;;;;;5095154;28;20040;-74
2024/03/05 05:27:35;;;;;;;3.03;1.48;;;7.20;90.00;;;;;;5114069;28;20108;-74
2024/03/05 05:30:03;;;;;;;4.40;2.13;;;7.20;90.10;;;;;;5113590;28;20036;-73
2024/03/05 05:32:29;;;;;;;5.32;1.95;;;7.10;90.00;;;;;;5095730;28;20081;-73
2024/03/05 05:34:55;;;;;;;3.80;1.80;;;7.20;90.10;;;;;;5113977;28;20032;-73
2024/03/05 05:37:20;;;;;;;3.10;1.70;;;7.10;90.10;;;;;;5095088;28;20539;-73
2024/03/05 05:39:46;;;;;;;3.40;1.52;;;7.20;90.10;;;;;;5095803;28;20040;-73
2024/03/05 05:42:14;;;;;;;3.00;1.38;;;7.20;90.10;;;;;;5113320;28;20110;-74
2024/03/05 05:44:40;;;;;;;3.03;1.48;;;7.20;90.10;;;;;;5094939;28;20502;-74
2024/03/05 05:47:10;;;;;;;2.85;1.50;;;7.20;90.10;;;;;;5095592;28;20118;-74
2024/03/05 05:49:36;;;;;;;2.47;1.42;;;7.20;90.10;;;;;;5113595;28;20052;-74
2024/03/05 05:52:03;;;;;;;3.95;1.85;;;7.20;90.20;;;;;;5113143;28;20039;-74
2024/03/05 05:54:29;;;;;;;3.38;1.70;;;7.20;90.20;;;;;;5113576;28;20044;-74
2024/03/05 05:56:55;;;;;;;3.88;1.65;;;7.20;90.20;;;;;;5113560;28;20044;-73
2024/03/05 05:59:21;;;;;;;2.72;1.40;;;7.20;90.20;;;;;;5113269;28;20613;-73
2024/03/05 06:01:46;;;;;;;2.60;1.30;;;7.20;90.20;;;;;;5094756;28;20467;-73
2024/03/05 06:04:12;;;;;;;2.53;1.58;;;7.10;90.20;;;;;;5113039;28;20039;-73
2024/03/05 06:06:38;;;;;;;3.30;1.50;;;7.10;90.20;;;;;;5113274;28;20047;-73
2024/03/05 06:09:08;;;;;;;4.15;1.83;;;7.10;90.20;;;;;;5113147;28;20043;-73
2024/03/05 06:11:38;;;;;;;4.97;1.80;;;7.10;90.30;;;;;;5113357;28;20035;-73
2024/03/05 06:14:04;;;;;;;2.58;1.33;;;7.20;90.30;;;;;;5113367;28;20077;-73
2024/03/05 06:16:31;;;;;;;3.30;1.50;;;7.10;90.30;;;;;;5095168;28;20035;-73
2024/03/05 06:18:57;;;;;;;2.88;1.40;;;7.10;90.30;;;;;;5094416;28;20039;-72
2024/03/05 06:21:22;;;;;;;3.85;1.50;;;7.10;90.30;;;;;;5094326;28;20054;-73
2024/03/05 06:23:50;;;;;;;3.58;1.63;;;7.20;90.30;;;;;;5112615;28;20047;-73
2024/03/05 06:26:16;;;;;;;3.35;1.60;;;7.10;90.30;;;;;;5113358;28;20032;-73
2024/03/05 06:28:42;;;;;;;4.60;2.00;;;7.10;90.30;;;;;;5112674;28;20086;-74
2024/03/05 06:31:10;;;;;;;4.72;2.17;;;7.10;90.30;;;;;;5113144;28;20062;-74
2024/03/05 06:33:36;;;;;;;5.70;2.15;;;7.10;90.30;;;;;;5111836;28;20039;-73
2024/03/05 06:36:06;;;;;;;3.28;1.63;;;7.20;90.40;;;;;;5112542;28;20046;-74
2024/03/05 06:38:34;;;;;;;2.42;1.50;;;7.10;90.30;;;;;;5112631;28;20039;-73
2024/03/05 06:41:00;;;;;;;2.05;1.25;;;7.10;90.30;;;;;;5094876;28;20040;-73
2024/03/05 06:43:32;;;;;;;3.40;1.67;;;7.10;90.40;;;;;;5094142;28;20099;-74
2024/03/05 06:46:00;;;;;;;4.68;1.83;;;7.20;90.40;;;;;;5112893;28;20047;-74
2024/03/05 06:48:26;;;;;;;4.18;1.63;;;7.10;90.40;;;;;;5112596;28;20043;-73
2024/03/05 06:50:58;;;;;;;3.03;1.40;;;7.10;90.40;;;;;;5112560;28;20142;-73
2024/03/05 06:58:44;;;;;;;2.78;1.50;;;7.20;90.40;;;;;;5096213;28;20050;-73
2024/03/05 07:01:11;;;;;;;2.67;1.33;;;7.20;90.40;;;;;;5095138;28;20479;-74
2024/03/05 07:03:38;;;;;;;3.47;1.63;;;7.20;90.40;;;;;;5112754;28;20089;-74
2024/03/05 07:06:07;;;;;;;2.10;1.20;;;7.20;90.40;;;;;;5092607;28;20139;-74
2024/03/05 07:08:34;;;;;;;2.28;1.23;;;7.20;90.40;;;;;;5094002;28;20042;-73
2024/03/05 07:11:00;;;;;;;3.20;1.58;;;7.20;90.40;;;;;;5095134;28;20096;-74
2024/03/05 07:13:28;;;;;;;3.72;1.88;;;7.20;90.40;;;;;;5094498;28;20051;-73
2024/03/05 07:15:56;;;;;;;4.47;1.80;;;7.30;90.40;;;;;;5094366;28;20040;-73
2024/03/05 07:18:22;;;;;;;3.28;1.63;;;7.20;90.40;;;;;;5077068;28;20490;-73
2024/03/05 07:20:48;;;;;;;3.58;1.75;;;7.20;90.40;;;;;;5093607;28;20169;-73
2024/03/05 07:23:14;;;;;;;3.97;1.77;;;7.30;90.40;;;;;;5093596;28;20407;-74
2024/03/05 07:25:39;;;;;;;3.28;1.50;;;7.30;90.40;;;;;;5093506;28;20036;-75
2024/03/05 07:28:05;;;;;;;2.05;1.20;;;7.30;90.40;;;;;;5077435;28;20035;-73
2024/03/05 07:30:33;;;;;;;3.40;1.42;;;7.30;90.40;;;;;;5093656;28;20047;-73
2024/03/05 07:32:59;;;;;;;5.13;1.98;;;7.40;90.40;;;;;;5094381;28;20042;-74
2024/03/05 07:35:25;;;;;;;5.00;2.08;;;7.30;90.30;;;;;;5093979;28;20036;-73
2024/03/05 07:37:51;;;;;;;4.90;1.98;;;7.40;90.30;;;;;;5113354;28;20070;-74
2024/03/05 07:40:18;;;;;;;3.83;1.83;;;7.40;90.30;;;;;;5094064;28;20048;-74
2024/03/05 07:42:47;;;;;;;4.18;2.08;;;7.50;90.30;;;;;;5077247;28;20083;-73
2024/03/05 07:45:16;;;;;;;4.28;2.13;;;7.50;90.30;;;;;;5114315;28;20118;-73
2024/03/05 07:47:43;;;;;;;3.20;1.60;;;7.50;90.30;;;;;;5109772;28;20035;-74
2024/03/05 07:50:12;;;;;;;3.65;1.75;;;7.60;90.30;;;;;;5121548;28;20039;-73
2024/03/05 07:52:39;;;;;;;5.28;2.13;;;7.60;90.30;;;;;;5079833;28;20059;-73
2024/03/05 07:55:08;;;;;;;5.53;2.13;;;7.60;90.30;;;;;;5096699;28;20397;-73
2024/03/05 07:57:37;;;;;;;4.43;2.15;;;7.70;90.30;;;;;;5097041;28;20067;-73
2024/03/05 08:02:41;;;;;;;4.55;2.20;;;7.80;90.20;;;;;;5115032;28;20031;-72
2024/03/05 08:05:07;;;;;;;4.95;2.20;;;7.80;90.20;;;;;;5115011;28;20032;-73
2024/03/05 08:07:35;;;;;;;4.80;2.17;;;7.90;90.20;;;;;;5063002;28;20032;-73
2024/03/05 08:10:07;;;;;;;4.60;2.22;;;7.90;90.20;;;;;;5096809;28;20088;-73
2024/03/05 08:12:38;;;;;;;4.55;2.08;;;8.10;90.20;;;;;;5080366;28;20072;-73
2024/03/05 08:15:06;;;;;;;;;;;8.00;90.10;;;;;;5063660;28;20035;-73
2024/03/05 08:17:33;;;;;;;3.63;1.70;;;8.10;90.10;;;;;;5079787;28;19911;-73
2024/03/05 08:19:59;;;;;;;4.25;2.08;;;8.10;90.10;;;;;;5079850;28;20490;-73
2024/03/05 08:22:25;;;;;;;3.30;1.90;;;8.10;90.10;;;;;;5114628;28;20052;-72
2024/03/05 08:24:51;;;;;;;3.47;1.83;;;8.10;90.10;;;;;;5079575;28;20043;-73
2024/03/05 08:27:16;;;;;;;4.72;1.75;;;8.10;90.10;;;;;;5114939;28;20486;-73
2024/03/05 08:29:43;;;;;;;4.85;1.85;;;8.20;90.10;;;;;;5096316;28;20506;-73
2024/03/05 08:32:09;;;;;;;6.40;2.88;;;8.30;90.10;;;;;;5115114;28;20043;-73
2024/03/05 08:34:38;;;;;;;7.40;2.80;;;8.30;90.10;;;;;;5079500;28;20176;-74
2024/03/05 08:37:04;;;;;;;4.97;2.40;;;8.30;90.10;;;;;;5079471;28;20119;-74
2024/03/05 08:39:30;;;;;;;5.40;2.30;;;8.30;90.00;;;;;;5096014;28;20126;-74
2024/03/05 08:41:55;;;;;;;4.60;2.25;;;8.40;90.10;;;;;;5095858;28;20039;-73
2024/03/05 08:44:21;;;;;;;4.57;1.98;;;8.40;90.10;;;;;;5096291;28;20044;-75
2024/03/05 08:46:47;;;;;;;6.28;2.60;;;8.50;90.10;;;;;;5095904;28;20040;-73
2024/03/05 08:49:13;;;;;;;4.50;2.08;;;8.40;90.00;;;;;;5078904;28;20138;-73
2024/03/05 08:51:39;;;;;;;6.00;2.55;;;8.50;90.10;;;;;;5114160;28;20061;-74
2024/03/05 08:54:08;;;;;;;4.50;2.20;;;8.50;90.00;;;;;;5062475;28;20482;-73
2024/03/05 08:56:36;;;;;;;5.45;2.33;;;8.60;90.00;;;;;;5078291;28;20046;-73
2024/03/05 08:59:06;;;;;;;5.00;2.25;;;8.60;90.00;;;;;;5079127;28;20035;-75
2024/03/05 09:01:34;;;;;;;5.53;2.55;;;8.60;90.00;;;;;;5063448;28;20160;-73
2024/03/05 09:04:03;;;;;;;5.22;2.45;;;8.60;90.00;;;;;;5074273;28;20131;-73
2024/03/05 09:06:30;;;;;;;4.25;1.95;;;8.70;90.10;;;;;;5057878;28;20079;-74
2024/03/05 09:08:56;;;;;;;4.82;2.20;;;8.70;90.00;;;;;;5041377;28;20036;-74
2024/03/05 09:11:22;;;;;;;5.45;2.30;;;8.70;90.00;;;;;;5058279;28;20040;-73
2024/03/05 09:13:48;;;;;;;5.15;2.30;;;8.70;90.00;;;;;;5091697;28;20043;-74
2024/03/05 09:16:13;;;;;;;4.25;2.00;;;8.70;90.10;;;;;;5074305;28;20134;-73
2024/03/05 09:18:40;;;;;;;8.45;3.13;;;8.80;90.10;;;;;;5074905;28;20044;-73
2024/03/05 09:21:07;;;;;;;7.28;3.45;;;8.80;90.00;;;;;;5091351;28;20056;-74
2024/03/05 09:23:33;;;;;;;5.63;2.78;;;8.80;90.00;;;;;;5057579;28;20043;-73
2024/03/05 09:25:58;;;;;;;7.70;3.03;;;8.80;90.00;;;;;;5074645;28;20181;-73
2024/03/05 09:28:24;;;;;;;6.70;3.03;;;8.80;90.10;;;;;;5091415;28;20040;-73
2024/03/05 09:30:50;;;;;;;6.45;2.88;;;8.80;90.10;;;;;;5040616;28;20585;-73
2024/03/05 09:33:16;;;;;;;4.82;2.58;;;8.90;90.10;;;;;;5090832;28;20052;-73
2024/03/05 09:35:42;;;;;;;5.13;2.45;;;8.90;90.10;;;;;;5108762;28;20039;-73
2024/03/05 09:38:08;;;;;;;5.15;2.17;;;9.00;90.30;;;;;;5061560;28;20498;-73
2024/03/05 09:40:34;;;;;;;5.55;2.65;;;9.10;90.00;;;;;;5078188;28;20092;-72
2024/03/05 09:43:04;;;;;;;5.43;2.50;;;9.10;90.00;;;;;;5095006;28;20050;-73
2024/03/05 09:45:32;;;;;;;5.38;2.50;;;9.20;90.00;;;;;;5077886;28;20028;-74
2024/03/05 09:47:59;;;;;;;6.03;2.53;;;9.20;90.00;;;;;;5078645;28;20479;-73
2024/03/05 09:50:25;;;;;;;6.55;2.88;;;9.30;90.00;;;;;;5113354;28;20164;-73
2024/03/05 09:52:51;;;;;;;6.68;2.55;;;9.30;89.90;;;;;;5113249;28;20514;-74
2024/03/05 09:55:19;;;;;;;5.90;2.92;;;9.30;89.90;;;;;;5078540;28;20043;-73
2024/03/05 09:57:48;;;;;;;5.45;2.60;;;9.40;89.90;;;;;;5094602;28;20035;-73
2024/03/05 10:00:17;;;;;;;6.65;3.15;;;9.30;90.00;;;;;;5113074;28;20056;-73
2024/03/05 10:02:47;;;;;;;5.55;2.70;;;9.40;90.00;;;;;;5095232;28;20043;-74
2024/03/05 10:05:15;;;;;;;4.85;2.60;;;9.40;89.80;;;;;;5076591;28;20418;-73
2024/03/05 10:07:41;;;;;;;5.15;2.40;;;9.50;89.80;;;;;;5110947;28;20035;-72
2024/03/05 10:10:10;;;;;;;5.43;2.50;;;9.50;89.70;;;;;;5113182;28;20390;-73
2024/03/05 10:12:36;;;;;;;7.20;3.05;;;9.50;89.70;;;;;;5113131;28;20044;-73
2024/03/05 10:15:19;;;;;;;4.57;2.42;;;9.50;89.60;;;;;;5112786;28;20039;-73
2024/03/05 10:17:50;;;;;;;5.00;2.63;;;9.40;89.60;;;;;;5094845;28;20134;-73
2024/03/05 10:20:28;;;;;;;4.85;2.33;;;9.60;89.70;;;;;;5093135;28;20630;-73
2024/03/05 10:22:57;;;;;;;6.65;2.97;;;9.50;89.80;;;;;;5112999;28;20120;-73
2024/03/05 10:25:23;;;;;;;7.93;3.67;;;9.60;89.80;;;;;;5112572;28;20375;-74
2024/03/05 10:27:50;;;;;;;6.70;2.90;;;9.50;89.70;;;;;;5113010;28;20043;-74
2024/03/05 10:30:25;;;;;;;5.50;2.78;;;9.50;89.80;;;;;;5113180;28;20060;-74
2024/03/05 10:32:54;;;;;;;5.65;2.67;;;9.50;89.80;;;;;;5093842;28;20067;-73
2024/03/05 10:35:20;;;;;;;6.05;2.97;;;9.60;90.20;;;;;;5061418;28;20039;-72
2024/03/05 10:38:08;;;;;;;6.47;3.05;;;9.60;89.70;;;;;;5112833;28;20036;-73
2024/03/05 10:40:34;;;;;;;6.78;3.20;;;9.60;89.70;;;;;;5112344;28;20046;-73
2024/03/05 10:43:02;;;;;;;6.53;3.42;;;9.60;89.70;;;;;;5112687;28;20039;-73
2024/03/05 10:45:29;;;;;;;5.57;3.17;;;9.70;89.70;;;;;;5112946;28;20475;-73
2024/03/05 10:47:57;;;;;;;8.00;3.90;;;9.60;89.60;;;;;;5112439;28;20043;-73
2024/03/05 10:50:25;;;;;;;7.28;3.22;;;9.60;90.00;;;;;;5094600;28;20101;-73
2024/03/05 10:52:59;;;;;;;6.65;3.30;;;9.60;89.40;;;;;;5112570;28;20172;-73
2024/03/05 10:55:25;;;;;;;7.40;3.40;;;9.70;89.40;;;;;;5077366;28;20047;-72
2024/03/05 11:00:37;;;;;;;7.03;3.47;;;9.70;89.20;;;;;;5096985;28;20039;-73
2024/03/05 11:03:09;;;;;;;6.80;3.03;;;9.70;89.10;;;;;;5060673;28;20040;-73
2024/03/05 11:05:44;;;;;;;6.90;2.80;;;9.60;89.10;;;;;;5093946;28;20065;-74
2024/03/05 11:08:13;;;;;;;5.80;2.88;;;9.60;89.10;;;;;;5112117;28;20038;-73
2024/03/05 11:10:43;;;;;;;5.20;2.53;;;9.60;89.30;;;;;;5095098;28;20063;-73
2024/03/05 11:13:11;;;;;;;5.75;2.97;;;9.60;89.30;;;;;;5094906;28;20061;-73
2024/03/05 11:15:38;;;;;;;4.72;2.65;;;9.60;89.20;;;;;;5112423;28;20043;-73
2024/03/05 11:18:26;;;;;;;5.32;2.60;;;9.60;89.20;;;;;;5093889;28;20047;-72
2024/03/05 11:20:53;;;;;;;4.88;2.78;;;9.60;89.10;;;;;;5098015;28;20043;-73
2024/03/05 11:23:20;;;;;;;5.15;2.40;;;9.60;89.00;;;;;;5115587;28;20067;-74
2024/03/05 11:25:47;;;;;;;5.10;2.60;;;9.60;88.90;;;;;;5116033;28;20086;-74
2024/03/05 11:28:16;;;;;;;6.03;2.80;;;9.60;88.90;;;;;;5097194;28;20432;-73
2024/03/05 11:30:44;;;;;;;5.05;2.33;;;9.60;89.00;;;;;;5097703;28;20070;-74
2024/03/05 11:33:11;;;;;;;4.40;2.38;;;9.50;89.10;;;;;;5115159;28;20039;-73
2024/03/05 11:35:41;;;;;;;4.47;2.30;;;9.40;89.10;;;;;;5115555;28;20040;-73
2024/03/05 11:38:10;;;;;;;4.47;2.28;;;9.40;89.30;;;;;;5115591;28;20123;-73
2024/03/05 11:40:37;;;;;;;3.72;2.13;;;9.30;89.20;;;;;;5115414;28;20047;-73
2024/03/05 11:43:04;;;;;;;3.40;1.83;;;9.30;89.40;;;;;;5097302;28;20398;-73
2024/03/05 11:45:46;;;;;;;3.10;1.98;;;9.30;89.50;;;;;;5097372;28;20097;-73
2024/03/05 11:48:15;;;;;;;4.05;2.10;;;9.30;89.60;;;;;;5115653;28;20071;-73
2024/03/05 11:50:41;;;;;;;5.22;2.00;;;9.20;89.60;;;;;;5096747;28;20375;-74
2024/03/05 11:53:09;;;;;;;4.18;2.22;;;9.20;89.60;;;;;;5115224;28;20510;-73
2024/03/05 11:55:35;;;;;;;2.92;1.67;;;9.20;89.70;;;;;;5097192;28;20070;-74
2024/03/05 11:58:01;;;;;;;2.67;1.58;;;9.10;89.80;;;;;;5115613;28;20498;-73
2024/03/05 12:00:28;;;;;;;3.65;1.70;;;9.10;89.80;;;;;;5114947;28;20070;-74
2024/03/05 12:02:56;;;;;;;4.55;2.30;;;9.10;89.90;;;;;;5114872;28;20488;-73
2024/03/05 12:05:22;;;;;;;4.00;2.00;;;9.10;89.80;;;;;;5114900;28;20482;-73
2024/03/05 12:08:08;;;;;;;3.67;1.80;;;8.90;89.80;;;;;;5115131;28;20046;-73
2024/03/05 12:10:36;;;;;;;2.65;1.60;;;9.00;90.00;;;;;;5097126;28;20049;-73
2024/03/05 12:13:03;;;;;;;4.05;1.67;;;9.00;90.00;;;;;;5097159;28;20055;-73
2024/03/05 12:15:30;;;;;;;2.42;1.38;;;9.00;90.00;;;;;;5114630;28;20185;-73
2024/03/05 12:17:57;;;;;;;2.78;1.60;;;9.00;90.00;;;;;;5114620;28;20104;-73
2024/03/05 12:20:23;;;;;;;3.42;1.67;;;9.00;90.00;;;;;;5114778;28;20044;-73
2024/03/05 12:22:53;;;;;;;2.60;1.60;;;8.90;90.00;;;;;;5096526;28;20119;-73
2024/03/05 12:25:20;;;;;;;4.60;2.30;;;8.90;90.00;;;;;;5114693;28;20541;-73
2024/03/05 12:27:48;;;;;;;4.15;1.98;;;8.90;90.00;;;;;;5114395;28;20051;-73
2024/03/05 12:30:15;;;;;;;3.00;1.50;;;8.80;90.10;;;;;;5096158;28;20050;-74
2024/03/05 12:32:44;;;;;;;3.10;1.55;;;8.80;90.10;;;;;;5096053;28;20054;-73
2024/03/05 12:35:13;;;;;;;4.05;2.03;;;8.70;90.10;;;;;;5114939;28;20057;-73
2024/03/05 12:37:39;;;;;;;2.63;1.48;;;8.80;90.10;;;;;;5114583;28;20123;-73
2024/03/05 12:40:07;;;;;;;4.55;1.50;;;8.80;90.20;;;;;;5096006;28;20051;-75
2024/03/05 12:42:33;;;;;;;3.22;1.60;;;8.70;90.20;;;;;;5114748;28;20447;-73
2024/03/05 12:45:05;;;;;;;2.25;1.33;;;8.70;90.20;;;;;;5114733;28;20064;-73
2024/03/05 12:47:31;;;;;;;2.78;1.40;;;8.70;90.20;;;;;;5114808;28;20462;-73
2024/03/05 12:50:00;;;;;;;2.60;1.35;;;8.70;90.20;;;;;;5114147;28;20126;-73
2024/03/05 12:52:26;;;;;;;1.33;1.00;;;8.80;90.20;;;;;;5114317;28;20047;-73
2024/03/05 12:55:01;;;;;;;2.28;1.38;;;8.80;90.20;;;;;;5096332;28;20479;-74
2024/03/05 12:57:27;;;;;;;2.08;1.27;;;8.80;90.10;;;;;;5094027;28;20421;-73
2024/03/05 12:59:55;;;;;;;4.50;1.90;;;8.80;90.20;;;;;;5114287;28;20130;-73
2024/03/05 13:02:21;;;;;;;2.58;1.45;;;8.80;90.20;;;;;;5114240;28;20044;-73
2024/03/05 13:04:47;;;;;;;2.58;1.40;;;8.90;90.20;;;;;;5096602;28;20117;-73
2024/03/05 13:07:12;;;;;;;2.65;1.30;;;8.90;90.10;;;;;;5062468;28;20074;-74
2024/03/05 13:09:38;;;;;;;2.30;1.35;;;8.90;90.10;;;;;;5114179;28;20024;-73